Time;durP1;ratioP1;P1;durP2;ratioP2;P2;SDS_P1;SDS_P2;PMS_P1;PMS_P2;Temp;Humidity;BMP_temperature;BMP_pressure;BME280_temperature;BME280_humidity;BME280_pressure;Samples;Min_cycle;Max_cycle;Signal;HPM_P1;HPM_P2
2022/06/01 00:00:44;;;;;;;8.70;7.85;;;13.30;78.20;;;;;;5113086;28;20061;-37
2022/06/01 00:03:10;;;;;;;9.43;8.50;;;13.30;78.20;;;;;;5113150;28;20588;-37
2022/06/01 00:05:35;;;;;;;10.30;9.30;;;13.20;78.30;;;;;;5111173;28;20083;-38
2022/06/01 00:08:01;;;;;;;9.55;8.63;;;13.20;78.40;;;;;;5112700;28;20050;-36
2022/06/01 00:10:27;;;;;;;10.15;9.07;;;13.20;78.50;;;;;;5112663;28;20530;-36
2022/06/01 00:12:54;;;;;;;10.32;9.27;;;13.20;78.60;;;;;;5112817;28;20450;-36
2022/06/01 00:15:21;;;;;;;10.48;9.48;;;13.20;78.70;;;;;;5112812;28;20474;-38
2022/06/01 00:17:47;;;;;;;10.30;9.32;;;13.20;78.70;;;;;;5111563;28;20367;-38
2022/06/01 00:20:14;;;;;;;10.40;9.40;;;13.20;78.70;;;;;;5112589;28;20530;-38
2022/06/01 00:22:41;;;;;;;11.18;10.07;;;13.20;78.70;;;;;;5112594;28;20095;-38
2022/06/01 00:25:07;;;;;;;10.65;9.55;;;13.20;78.80;;;;;;5112451;28;20024;-37
2022/06/01 00:27:34;;;;;;;10.50;9.50;;;13.10;78.70;;;;;;5112816;28;20371;-37
2022/06/01 00:30:00;;;;;;;9.85;8.82;;;13.10;78.80;;;;;;5112785;28;20098;-36
2022/06/01 00:32:26;;;;;;;10.52;9.45;;;13.20;78.90;;;;;;5112364;28;20110;-37
2022/06/01 00:34:52;;;;;;;10.52;9.52;;;13.20;78.90;;;;;;5114547;28;20158;-37
2022/06/01 00:37:19;;;;;;;11.05;9.68;;;13.10;78.70;;;;;;5116512;28;20085;-37
2022/06/01 00:39:45;;;;;;;9.98;8.98;;;13.10;78.80;;;;;;5116565;28;20024;-37
2022/06/01 00:42:23;;;;;;;11.55;10.05;;;13.10;78.80;;;;;;5116447;27;20527;-37
2022/06/01 00:44:49;;;;;;;11.55;10.45;;;13.10;78.80;;;;;;5116476;28;20096;-37
2022/06/01 00:47:16;;;;;;;11.43;10.30;;;13.10;78.90;;;;;;5116015;28;20543;-37
2022/06/01 00:49:46;;;;;;;11.13;9.95;;;13.10;79.00;;;;;;5116722;28;20438;-35
2022/06/01 00:52:12;;;;;;;11.48;10.13;;;13.10;79.10;;;;;;5116576;28;20019;-36
2022/06/01 00:54:38;;;;;;;10.65;9.55;;;13.10;79.10;;;;;;5116447;28;20059;-37
2022/06/01 00:57:09;;;;;;;11.88;10.68;;;13.00;79.10;;;;;;5116209;28;20032;-36
2022/06/01 00:59:39;;;;;;;11.63;10.50;;;13.00;79.10;;;;;;5115998;27;20490;-35
2022/06/01 01:02:06;;;;;;;12.27;11.02;;;13.00;79.20;;;;;;5116292;28;20331;-37
2022/06/01 01:04:33;;;;;;;11.48;10.48;;;13.00;79.20;;;;;;5116039;28;20053;-37
2022/06/01 01:07:04;;;;;;;12.05;10.75;;;13.00;79.20;;;;;;5116113;28;20020;-39
2022/06/01 01:09:30;;;;;;;12.38;11.27;;;13.00;79.30;;;;;;5116103;28;20386;-36
2022/06/01 01:11:59;;;;;;;12.57;11.25;;;13.00;79.20;;;;;;5116180;28;20011;-36
2022/06/01 01:14:30;;;;;;;12.10;11.00;;;13.00;79.30;;;;;;5116002;28;20020;-37
2022/06/01 01:16:56;;;;;;;12.43;11.23;;;13.00;79.40;;;;;;5115962;28;20051;-37
2022/06/01 01:19:29;;;;;;;11.68;10.48;;;13.00;79.40;;;;;;5115715;28;20024;-37
2022/06/01 01:22:23;;;;;;;12.63;11.43;;;13.00;79.40;;;;;;5115979;27;20505;-36
2022/06/01 01:25:26;;;;;;;12.10;10.73;;;12.90;79.40;;;;;;5095938;28;20181;-37
2022/06/01 01:27:56;;;;;;;11.70;10.60;;;12.90;79.50;;;;;;5115432;28;20035;-37
2022/06/01 01:30:38;;;;;;;12.05;10.85;;;12.90;79.50;;;;;;5115422;28;20023;-36
2022/06/01 01:33:13;;;;;;;13.10;11.73;;;12.90;79.70;;;;;;5114459;28;20042;-36
2022/06/01 01:35:41;;;;;;;13.25;11.93;;;12.80;79.80;;;;;;5115690;28;20031;-37
2022/06/01 01:38:10;;;;;;;12.57;11.27;;;12.70;80.00;;;;;;5115321;28;20020;-36
2022/06/01 01:40:36;;;;;;;12.02;10.82;;;12.70;80.30;;;;;;5115270;28;20050;-37
2022/06/01 01:43:06;;;;;;;12.43;11.13;;;12.60;80.40;;;;;;5115445;28;20032;-36
2022/06/01 01:45:34;;;;;;;11.15;10.05;;;12.60;80.70;;;;;;5114440;27;20023;-37
2022/06/01 01:47:59;;;;;;;12.65;10.93;;;12.50;80.80;;;;;;5113924;28;20102;-37
2022/06/01 01:50:26;;;;;;;10.80;9.52;;;12.50;81.60;;;;;;5115191;28;20146;-37
2022/06/01 01:52:53;;;;;;;11.20;10.00;;;12.50;81.10;;;;;;5115063;27;20027;-38
2022/06/01 01:55:55;;;;;;;10.85;9.85;;;12.60;81.20;;;;;;5115455;28;20114;-37
2022/06/01 01:58:44;;;;;;;10.98;9.88;;;12.60;81.40;;;;;;5113496;28;20048;-37
2022/06/01 02:01:21;;;;;;;11.80;10.65;;;12.60;81.30;;;;;;5115077;28;20055;-37
2022/06/01 02:04:00;;;;;;;11.15;9.93;;;12.70;81.30;;;;;;5114879;28;20028;-37
2022/06/01 02:06:33;;;;;;;11.32;10.23;;;12.70;81.40;;;;;;5113386;28;20114;-36
2022/06/01 02:09:06;;;;;;;11.00;9.93;;;12.70;81.40;;;;;;5114644;28;20052;-36
2022/06/01 02:14:29;;;;;;;10.98;9.60;;;12.70;81.20;;;;;;5114697;28;20161;-36
2022/06/01 02:17:02;;;;;;;10.95;9.90;;;12.70;81.20;;;;;;5114305;27;20023;-38
2022/06/01 02:19:39;;;;;;;11.38;10.23;;;12.70;81.30;;;;;;5114284;28;20039;-38
2022/06/01 02:22:06;;;;;;;10.75;9.45;;;12.70;81.40;;;;;;5114424;28;20032;-36
2022/06/01 02:24:31;;;;;;;10.82;9.65;;;12.70;81.30;;;;;;5114248;28;20106;-36
2022/06/01 02:26:58;;;;;;;10.32;9.25;;;12.80;81.40;;;;;;5114053;28;20111;-37
2022/06/01 02:29:35;;;;;;;9.60;8.70;;;12.80;81.40;;;;;;5114368;28;20028;-36
2022/06/01 02:32:03;;;;;;;9.93;8.93;;;12.80;81.40;;;;;;5114482;28;20513;-36
2022/06/01 02:34:30;;;;;;;8.70;7.80;;;12.80;81.30;;;;;;5114452;28;20061;-37
2022/06/01 02:36:58;;;;;;;8.05;7.25;;;12.80;81.30;;;;;;5114508;28;20059;-36
2022/06/01 02:39:27;;;;;;;9.38;7.30;;;12.80;81.30;;;;;;5112692;28;20038;-37
2022/06/01 02:45:05;;;;;;;7.03;6.35;;;12.80;81.40;;;;;;5114141;28;20042;-36
2022/06/01 02:47:33;;;;;;;7.00;6.30;;;12.80;81.40;;;;;;5113707;28;20031;-37
2022/06/01 02:49:59;;;;;;;6.70;6.05;;;12.80;81.40;;;;;;5113810;28;20020;-37
2022/06/01 02:52:27;;;;;;;7.05;5.80;;;12.80;81.30;;;;;;5113975;28;20024;-36
2022/06/01 02:54:53;;;;;;;5.90;5.38;;;12.80;81.40;;;;;;5114008;28;20107;-36
2022/06/01 02:57:19;;;;;;;5.93;5.32;;;12.80;81.40;;;;;;5113636;28;20432;-37
2022/06/01 02:59:46;;;;;;;6.88;5.63;;;12.80;81.40;;;;;;5113558;28;20139;-36
2022/06/01 03:02:12;;;;;;;5.95;4.65;;;12.70;81.40;;;;;;5113919;28;20040;-37
2022/06/01 03:04:40;;;;;;;5.20;4.70;;;12.80;81.40;;;;;;5113728;28;20142;-36
2022/06/01 03:07:06;;;;;;;5.30;4.80;;;12.70;81.40;;;;;;5113797;28;20510;-37
2022/06/01 03:09:31;;;;;;;5.18;4.55;;;12.70;81.40;;;;;;5113609;28;20073;-37
2022/06/01 03:11:58;;;;;;;5.90;4.95;;;12.70;81.40;;;;;;5113828;28;20405;-37
2022/06/01 03:14:24;;;;;;;5.80;4.70;;;12.60;81.40;;;;;;5113759;28;20395;-37
2022/06/01 03:16:50;;;;;;;5.82;5.22;;;12.60;81.40;;;;;;5113520;28;20482;-36
2022/06/01 03:19:15;;;;;;;5.93;5.00;;;12.60;81.60;;;;;;5113755;28;20031;-37
2022/06/01 03:21:41;;;;;;;5.50;5.00;;;12.60;81.60;;;;;;5113308;28;20035;-35
2022/06/01 03:24:08;;;;;;;5.72;5.18;;;12.60;81.60;;;;;;5113396;28;20115;-36
2022/06/01 03:26:34;;;;;;;6.05;5.43;;;12.50;81.60;;;;;;5113506;28;20038;-36
2022/06/01 03:28:59;;;;;;;6.28;5.68;;;12.50;81.80;;;;;;5113634;28;20475;-36
2022/06/01 03:31:25;;;;;;;6.30;5.68;;;12.50;81.70;;;;;;5113165;28;20059;-36
2022/06/01 03:33:50;;;;;;;7.75;5.22;;;12.50;81.70;;;;;;5113145;28;20098;-36
2022/06/01 03:36:16;;;;;;;6.28;5.68;;;12.50;81.70;;;;;;5113346;28;20106;-37
2022/06/01 03:38:42;;;;;;;7.18;6.15;;;12.50;81.80;;;;;;5113080;28;20039;-36
2022/06/01 03:41:07;;;;;;;6.03;5.43;;;12.50;81.90;;;;;;5113007;28;20039;-36
2022/06/01 03:46:22;;;;;;;6.57;5.85;;;12.40;81.90;;;;;;5112157;28;20043;-37
2022/06/01 03:48:48;;;;;;;6.75;5.97;;;12.40;81.90;;;;;;5113293;28;20020;-36
2022/06/01 03:51:15;;;;;;;8.13;6.50;;;12.40;81.90;;;;;;5113043;28;20032;-36
2022/06/01 03:53:40;;;;;;;6.80;6.10;;;12.40;82.00;;;;;;5113055;28;20019;-37
2022/06/01 03:56:08;;;;;;;7.47;6.57;;;12.30;82.00;;;;;;5113227;28;20525;-36
2022/06/01 03:58:34;;;;;;;7.30;6.60;;;12.30;82.10;;;;;;5112737;28;20058;-37
2022/06/01 04:01:00;;;;;;;7.47;6.72;;;12.20;82.00;;;;;;5111631;28;20032;-36
2022/06/01 04:03:25;;;;;;;6.63;5.97;;;12.20;82.10;;;;;;5113001;28;20479;-37
2022/06/01 04:05:51;;;;;;;6.40;5.80;;;12.20;82.20;;;;;;5113246;28;20028;-36
2022/06/01 04:08:16;;;;;;;6.72;6.13;;;12.20;82.30;;;;;;5114166;28;20095;-36
2022/06/01 04:10:43;;;;;;;7.03;6.32;;;12.20;82.30;;;;;;5117268;28;20039;-35
2022/06/01 04:13:10;;;;;;;6.47;5.88;;;12.10;82.30;;;;;;5117174;28;20080;-38
2022/06/01 04:15:36;;;;;;;6.53;5.93;;;12.10;82.90;;;;;;5117109;28;20039;-37
2022/06/01 04:18:01;;;;;;;6.90;6.20;;;12.20;82.40;;;;;;5117564;27;20034;-37
2022/06/01 04:20:27;;;;;;;6.45;5.85;;;12.20;82.40;;;;;;5116821;28;20040;-37
2022/06/01 04:22:54;;;;;;;7.10;5.70;;;12.20;82.40;;;;;;5117074;28;20074;-37
2022/06/01 04:25:22;;;;;;;6.95;6.03;;;12.20;82.40;;;;;;5116593;28;20134;-37
2022/06/01 04:27:47;;;;;;;8.48;6.70;;;12.20;82.40;;;;;;5116568;28;20028;-36
2022/06/01 04:30:16;;;;;;;8.23;6.78;;;12.20;82.40;;;;;;5116931;28;20027;-37
2022/06/01 04:32:44;;;;;;;7.60;6.80;;;12.30;82.40;;;;;;5116712;28;20031;-36
2022/06/01 04:35:10;;;;;;;7.88;7.07;;;12.30;82.40;;;;;;5116877;28;20442;-37
2022/06/01 04:37:36;;;;;;;8.73;7.40;;;12.30;82.30;;;;;;5116696;28;20102;-37
2022/06/01 04:40:01;;;;;;;9.98;8.68;;;12.40;82.30;;;;;;5116507;28;20035;-38
2022/06/01 04:42:27;;;;;;;10.48;9.38;;;12.40;82.20;;;;;;5116524;28;20145;-37
2022/06/01 04:44:53;;;;;;;9.75;8.52;;;12.50;82.20;;;;;;5116372;28;20027;-37
2022/06/01 04:47:19;;;;;;;11.27;10.05;;;12.50;82.10;;;;;;5116272;28;20032;-37
2022/06/01 04:49:46;;;;;;;13.43;11.10;;;12.60;82.10;;;;;;5116507;28;20031;-37
2022/06/01 04:52:12;;;;;;;12.30;11.00;;;12.60;82.00;;;;;;5116011;28;20019;-37
2022/06/01 04:54:39;;;;;;;12.98;11.10;;;12.60;81.90;;;;;;5116435;28;20505;-37
2022/06/01 04:57:06;;;;;;;13.15;11.80;;;12.60;81.90;;;;;;5116083;28;20532;-37
2022/06/01 04:59:32;;;;;;;12.85;11.55;;;12.70;82.50;;;;;;5114599;28;20123;-37
2022/06/01 05:01:58;;;;;;;13.80;12.07;;;12.70;81.80;;;;;;5116157;28;20027;-37
2022/06/01 05:04:25;;;;;;;14.45;12.95;;;12.70;81.80;;;;;;5116156;28;20034;-37
2022/06/01 05:06:51;;;;;;;13.02;11.52;;;12.80;81.80;;;;;;5115783;28;20024;-38
2022/06/01 05:09:17;;;;;;;13.48;12.07;;;12.80;81.70;;;;;;5116100;28;20024;-39
2022/06/01 05:11:42;;;;;;;14.50;13.00;;;12.90;81.70;;;;;;5115973;28;20131;-37
2022/06/01 05:14:08;;;;;;;13.40;12.00;;;12.90;81.60;;;;;;5115829;28;20031;-37
2022/06/01 05:16:34;;;;;;;16.05;12.73;;;12.80;81.60;;;;;;5115526;28;20032;-38
2022/06/01 05:19:00;;;;;;;13.48;12.07;;;12.80;81.60;;;;;;5115344;28;20364;-38
2022/06/01 05:21:25;;;;;;;14.38;12.68;;;12.80;81.80;;;;;;5115733;28;20027;-38
2022/06/01 05:23:51;;;;;;;13.63;12.27;;;12.80;81.80;;;;;;5115709;28;20099;-39
2022/06/01 05:26:17;;;;;;;13.60;11.98;;;12.80;81.80;;;;;;5115426;28;20475;-37
2022/06/01 05:28:42;;;;;;;13.52;12.07;;;12.80;81.80;;;;;;5115182;28;20500;-37
2022/06/01 05:31:10;;;;;;;14.77;11.73;;;12.80;81.80;;;;;;5115296;28;20055;-38
2022/06/01 05:33:38;;;;;;;14.50;12.43;;;12.80;81.80;;;;;;5115327;28;20371;-37
2022/06/01 05:36:03;;;;;;;13.73;12.13;;;12.80;81.80;;;;;;5115257;28;20038;-37
2022/06/01 05:38:29;;;;;;;14.32;12.48;;;12.70;81.80;;;;;;5115169;28;20023;-38
2022/06/01 05:40:55;;;;;;;13.60;12.20;;;12.60;81.90;;;;;;5115018;28;20035;-37
2022/06/01 05:43:21;;;;;;;15.07;11.20;;;12.60;82.00;;;;;;5115332;28;20039;-37
2022/06/01 05:45:47;;;;;;;14.85;12.15;;;12.60;82.10;;;;;;5114910;28;20031;-37
2022/06/01 05:48:17;;;;;;;14.20;12.40;;;12.50;82.10;;;;;;5115540;28;20382;-39
2022/06/01 05:50:42;;;;;;;15.68;12.43;;;12.60;82.20;;;;;;5115412;28;20463;-37
2022/06/01 05:53:08;;;;;;;15.80;13.45;;;12.50;82.10;;;;;;5114772;28;20126;-38
2022/06/01 05:55:38;;;;;;;13.70;11.63;;;12.50;82.20;;;;;;5115082;28;20050;-38
2022/06/01 05:58:16;;;;;;;14.65;13.07;;;12.50;82.20;;;;;;5114755;28;20115;-37
2022/06/01 06:00:42;;;;;;;15.77;11.70;;;12.50;82.30;;;;;;5114514;28;20023;-36
2022/06/01 06:03:08;;;;;;;14.45;12.73;;;12.50;82.30;;;;;;5114801;28;20026;-38
2022/06/01 06:08:19;;;;;;;12.88;10.48;;;12.60;82.40;;;;;;5114384;28;20046;-38
2022/06/01 06:10:45;;;;;;;12.95;10.30;;;12.60;82.30;;;;;;5112981;28;20036;-37
2022/06/01 06:13:10;;;;;;;11.45;9.10;;;12.70;82.30;;;;;;5114318;28;20027;-38
2022/06/01 06:15:36;;;;;;;11.45;9.98;;;12.70;82.30;;;;;;5114156;28;20030;-37
2022/06/01 06:18:02;;;;;;;11.20;9.50;;;12.70;82.10;;;;;;5114113;28;20045;-37
2022/06/01 06:20:28;;;;;;;10.30;9.30;;;12.70;82.10;;;;;;5114048;28;20027;-38
2022/06/01 06:22:53;;;;;;;9.63;8.63;;;12.80;82.10;;;;;;5114623;28;20039;-39
2022/06/01 06:25:19;;;;;;;10.25;8.60;;;12.80;82.00;;;;;;5114265;28;20510;-38
2022/06/01 06:27:44;;;;;;;9.68;8.35;;;12.90;82.10;;;;;;5113900;28;20035;-36
2022/06/01 06:30:11;;;;;;;7.90;7.10;;;12.90;82.00;;;;;;5114085;28;20382;-37
2022/06/01 06:32:36;;;;;;;8.85;7.95;;;13.00;81.90;;;;;;5111945;28;20027;-38
2022/06/01 06:35:02;;;;;;;10.45;7.82;;;13.00;81.80;;;;;;5113993;28;20466;-37
2022/06/01 06:37:28;;;;;;;10.98;7.43;;;13.00;81.60;;;;;;5113761;28;20084;-37
2022/06/01 06:39:53;;;;;;;7.82;7.03;;;13.10;81.50;;;;;;5113714;28;20436;-37
2022/06/01 06:42:19;;;;;;;8.40;7.20;;;13.10;81.30;;;;;;5113804;28;20024;-38
2022/06/01 06:44:44;;;;;;;8.32;7.35;;;13.10;81.20;;;;;;5113666;28;20039;-37
2022/06/01 06:47:10;;;;;;;9.35;7.05;;;13.20;81.00;;;;;;5113977;28;20034;-37
2022/06/01 06:49:37;;;;;;;8.63;6.97;;;13.20;80.90;;;;;;5113683;28;20029;-39
2022/06/01 06:52:03;;;;;;;8.40;7.07;;;13.20;80.80;;;;;;5113458;28;20086;-38
2022/06/01 06:54:28;;;;;;;8.60;6.80;;;13.30;80.80;;;;;;5113940;28;20028;-37
2022/06/01 06:56:54;;;;;;;8.10;7.30;;;13.40;80.70;;;;;;5113432;28;20059;-39
2022/06/01 06:59:19;;;;;;;7.53;6.25;;;13.40;80.50;;;;;;5113247;28;20048;-38
2022/06/01 07:01:45;;;;;;;11.20;7.53;;;13.50;80.40;;;;;;5113232;28;20027;-37
2022/06/01 07:04:10;;;;;;;8.48;6.93;;;13.60;80.20;;;;;;5113414;28;20111;-38
2022/06/01 07:06:36;;;;;;;10.73;6.57;;;13.60;80.10;;;;;;5113013;28;20066;-39
2022/06/01 07:09:05;;;;;;;7.60;5.75;;;13.70;80.00;;;;;;5113058;28;20032;-38
2022/06/01 07:14:53;;;;;;;8.52;6.20;;;14.00;79.60;;;;;;5113534;28;20136;-38
2022/06/01 07:17:18;;;;;;;6.10;5.20;;;14.10;79.30;;;;;;5113461;28;20031;-37
2022/06/01 07:19:44;;;;;;;6.28;5.53;;;14.20;79.00;;;;;;5113602;28;20123;-37
2022/06/01 07:22:09;;;;;;;7.55;4.90;;;14.30;78.60;;;;;;5113318;28;20088;-37
2022/06/01 07:24:35;;;;;;;5.70;4.97;;;14.50;78.30;;;;;;5113255;28;20055;-38
2022/06/01 07:27:01;;;;;;;6.55;5.20;;;14.60;78.30;;;;;;5111826;28;20548;-37
2022/06/01 07:29:27;;;;;;;9.63;4.70;;;14.60;77.60;;;;;;5113317;28;20024;-37
2022/06/01 07:31:53;;;;;;;4.93;4.38;;;14.70;77.40;;;;;;5113118;28;20072;-36
2022/06/01 07:34:18;;;;;;;4.78;4.38;;;14.70;77.30;;;;;;5111703;28;20043;-38
2022/06/01 07:36:45;;;;;;;7.05;4.03;;;14.80;77.30;;;;;;5113641;28;20028;-38
2022/06/01 07:44:54;;;;;;;4.18;3.58;;;15.00;76.00;;;;;;5113021;28;20057;-37
2022/06/01 07:47:20;;;;;;;6.10;3.63;;;15.10;76.00;;;;;;5112789;28;20110;-37
2022/06/01 07:49:46;;;;;;;4.35;3.60;;;15.10;75.70;;;;;;5113064;28;20423;-37
2022/06/01 07:52:13;;;;;;;3.47;3.03;;;15.20;75.60;;;;;;5113321;28;20505;-37
2022/06/01 07:54:41;;;;;;;3.80;3.13;;;15.20;75.60;;;;;;5111972;28;20482;-37
2022/06/01 07:57:07;;;;;;;3.75;3.10;;;15.20;75.40;;;;;;5113234;28;20036;-37
2022/06/01 07:59:33;;;;;;;4.88;3.25;;;15.20;75.10;;;;;;5112760;28;20054;-38
2022/06/01 08:01:59;;;;;;;4.57;3.05;;;15.20;75.20;;;;;;5113159;28;20080;-37
2022/06/01 08:04:25;;;;;;;3.78;2.92;;;15.20;75.10;;;;;;5113098;28;20055;-37
2022/06/01 08:06:50;;;;;;;4.30;2.60;;;15.30;75.00;;;;;;5112538;28;20042;-37
2022/06/01 08:09:16;;;;;;;2.63;2.38;;;15.40;74.60;;;;;;5112783;28;20099;-37
2022/06/01 08:14:26;;;;;;;3.22;2.92;;;15.50;74.10;;;;;;5112922;28;20609;-38
2022/06/01 08:16:52;;;;;;;2.80;2.60;;;15.60;73.60;;;;;;5112947;28;20047;-37
2022/06/01 08:19:17;;;;;;;3.40;3.10;;;15.60;73.50;;;;;;5112838;28;20036;-39
2022/06/01 08:21:44;;;;;;;2.85;2.50;;;15.50;73.10;;;;;;5113277;28;20065;-39
2022/06/01 08:24:11;;;;;;;3.90;2.50;;;15.50;73.30;;;;;;5112843;28;20034;-36
2022/06/01 08:26:37;;;;;;;3.25;2.90;;;15.40;73.50;;;;;;5112901;28;20050;-37
2022/06/01 08:29:03;;;;;;;2.92;2.72;;;15.20;73.50;;;;;;5112732;28;20028;-37
2022/06/01 08:31:30;;;;;;;4.22;3.45;;;15.20;73.50;;;;;;5113073;28;20471;-38
2022/06/01 08:33:57;;;;;;;3.10;2.80;;;15.20;73.50;;;;;;5112644;28;20027;-37
2022/06/01 08:36:23;;;;;;;5.63;3.10;;;15.30;73.20;;;;;;5112792;28;20036;-38
2022/06/01 08:38:49;;;;;;;3.13;2.63;;;15.40;72.90;;;;;;5112944;28;20027;-38
2022/06/01 08:41:16;;;;;;;3.05;2.45;;;15.50;72.70;;;;;;5113040;28;20055;-38
2022/06/01 08:43:52;;;;;;;3.30;3.00;;;15.60;72.30;;;;;;5113062;28;20031;-38
2022/06/01 08:46:20;;;;;;;4.10;2.70;;;15.80;71.80;;;;;;5112585;28;20031;-38
2022/06/01 08:48:48;;;;;;;3.45;2.85;;;15.90;71.30;;;;;;5112597;28;20032;-38
2022/06/01 08:51:24;;;;;;;2.70;2.50;;;16.00;71.00;;;;;;5112557;28;20501;-39
2022/06/01 08:53:49;;;;;;;3.90;2.60;;;16.20;71.00;;;;;;5112805;28;20027;-38
2022/06/01 08:56:23;;;;;;;2.90;2.60;;;16.20;70.40;;;;;;5116412;28;20474;-38
2022/06/01 08:59:00;;;;;;;;;;;16.30;70.20;;;;;;5116738;28;20051;-38
2022/06/01 09:01:57;;;;;;;3.65;2.60;;;16.40;70.20;;;;;;5116129;28;19908;-37
2022/06/01 09:04:37;;;;;;;3.70;2.10;;;16.50;69.80;;;;;;5116456;28;20055;-38
2022/06/01 09:07:25;;;;;;;3.25;2.15;;;16.50;69.30;;;;;;5116080;28;20042;-38
2022/06/01 09:09:56;;;;;;;2.75;2.30;;;16.50;68.90;;;;;;5116072;28;20578;-38
2022/06/01 09:12:22;;;;;;;3.05;2.50;;;16.60;68.80;;;;;;5116195;28;20031;-39
2022/06/01 09:14:52;;;;;;;3.95;2.47;;;16.70;68.60;;;;;;5115905;28;20535;-39
2022/06/01 09:17:18;;;;;;;2.53;2.17;;;16.70;68.20;;;;;;5115933;28;20028;-39
2022/06/01 09:22:37;;;;;;;2.20;2.00;;;16.90;67.60;;;;;;5114951;28;20047;-40
2022/06/01 09:25:08;;;;;;;2.13;1.92;;;17.00;67.20;;;;;;5114511;28;20400;-39
2022/06/01 09:27:40;;;;;;;2.30;1.80;;;17.10;67.10;;;;;;5114212;28;20039;-39
2022/06/01 09:30:29;;;;;;;2.67;2.00;;;17.10;66.90;;;;;;5114206;28;20103;-39
2022/06/01 09:33:02;;;;;;;2.33;2.10;;;17.10;66.80;;;;;;5115551;27;20106;-38
2022/06/01 09:35:30;;;;;;;2.40;2.20;;;17.00;66.30;;;;;;5115704;28;20016;-38
2022/06/01 09:37:58;;;;;;;2.88;2.15;;;17.00;66.40;;;;;;5115386;28;20143;-37
2022/06/01 09:40:32;;;;;;;3.10;2.17;;;16.90;66.90;;;;;;5115356;28;20080;-38
2022/06/01 09:43:01;;;;;;;;;;;16.80;66.30;;;;;;5115860;28;20036;-38
2022/06/01 09:45:37;;;;;;;2.20;1.95;;;16.80;66.40;;;;;;5115358;28;19998;-39
2022/06/01 09:48:26;;;;;;;2.13;1.92;;;16.90;66.20;;;;;;5114218;28;20044;-37
2022/06/01 09:51:18;;;;;;;2.58;2.20;;;17.00;65.90;;;;;;5115319;28;20076;-37
2022/06/01 09:53:52;;;;;;;3.30;2.30;;;17.00;65.60;;;;;;5115366;28;20023;-39
2022/06/01 09:56:40;;;;;;;2.70;2.10;;;17.10;65.40;;;;;;5115489;28;20042;-38
2022/06/01 10:07:28;;;;;;;2.13;1.80;;;16.90;63.40;;;;;;5113810;28;20043;-38
2022/06/01 10:09:56;;;;;;;3.17;1.60;;;16.70;62.80;;;;;;5113288;28;20028;-36
2022/06/01 10:12:42;;;;;;;1.52;1.40;;;16.60;62.60;;;;;;5114658;28;20292;-37
2022/06/01 10:15:19;;;;;;;1.83;1.27;;;16.60;62.90;;;;;;5114735;28;20483;-38
2022/06/01 10:17:51;;;;;;;1.35;1.25;;;16.50;61.70;;;;;;5114466;28;20023;-38
2022/06/01 10:20:34;;;;;;;1.38;1.15;;;16.50;61.80;;;;;;5114329;28;20474;-38
2022/06/01 10:23:05;;;;;;;1.20;1.10;;;16.60;62.00;;;;;;5114325;28;20081;-38
2022/06/01 10:25:43;;;;;;;1.58;1.48;;;16.70;62.60;;;;;;5114422;28;20019;-37
2022/06/01 10:28:22;;;;;;;2.20;1.92;;;16.80;62.00;;;;;;5112959;28;20112;-37
2022/06/01 10:30:54;;;;;;;2.58;2.15;;;16.90;61.50;;;;;;5113024;28;20020;-38
2022/06/01 10:33:31;;;;;;;4.03;2.00;;;17.00;61.10;;;;;;5114028;28;20099;-42
2022/06/01 10:36:02;;;;;;;1.80;1.70;;;17.10;60.60;;;;;;5114489;28;20114;-37
2022/06/01 10:38:48;;;;;;;4.53;2.00;;;17.20;60.10;;;;;;5114009;28;20034;-37
2022/06/01 10:41:47;;;;;;;3.78;3.38;;;17.40;58.70;;;;;;5114312;28;20103;-37
2022/06/01 10:44:29;;;;;;;3.20;2.28;;;17.60;58.90;;;;;;5113656;28;20039;-36
2022/06/01 10:46:55;;;;;;;2.95;2.33;;;17.80;59.10;;;;;;5113983;28;20039;-37
2022/06/01 10:49:48;;;;;;;2.67;1.73;;;18.00;58.70;;;;;;5114195;28;20069;-38
2022/06/01 10:52:22;;;;;;;2.10;1.73;;;18.00;58.50;;;;;;5114043;28;20526;-37
2022/06/01 10:55:19;;;;;;;3.25;1.80;;;17.90;58.20;;;;;;5112459;28;20415;-38
2022/06/01 10:57:47;;;;;;;2.70;2.05;;;17.80;57.90;;;;;;5113853;28;20030;-36
2022/06/01 11:00:21;;;;;;;2.10;1.90;;;17.50;58.50;;;;;;5112835;28;20367;-36
2022/06/01 11:02:58;;;;;;;2.75;2.20;;;17.40;59.30;;;;;;5112833;28;20425;-37
2022/06/01 11:05:47;;;;;;;2.55;2.35;;;17.20;60.00;;;;;;5111852;28;20031;-37
2022/06/01 11:08:30;;;;;;;4.35;2.28;;;17.10;60.90;;;;;;5112804;28;20034;-38
2022/06/01 11:11:09;;;;;;;3.80;2.42;;;16.90;61.20;;;;;;5112653;28;20081;-37
2022/06/01 11:13:53;;;;;;;2.50;2.30;;;16.80;61.80;;;;;;5112957;28;20030;-37
2022/06/01 11:16:49;;;;;;;2.50;2.30;;;16.80;62.20;;;;;;5111589;28;20034;-37
2022/06/01 11:19:28;;;;;;;2.83;1.75;;;16.80;62.50;;;;;;5112759;28;20489;-38
2022/06/01 11:22:22;;;;;;;1.40;1.30;;;16.90;62.40;;;;;;5112600;28;20398;-36
2022/06/01 11:25:09;;;;;;;1.08;0.90;;;17.00;61.80;;;;;;5112563;28;20102;-38
2022/06/01 11:27:57;;;;;;;0.90;0.80;;;17.20;61.30;;;;;;5112466;28;20019;-37
2022/06/01 11:30:48;;;;;;;0.68;0.68;;;17.20;60.30;;;;;;5105789;28;20039;-38
2022/06/01 11:33:26;;;;;;;1.55;0.90;;;17.30;59.40;;;;;;5112566;28;20020;-42
2022/06/01 11:36:04;;;;;;;1.67;1.20;;;17.20;59.60;;;;;;5112939;28;20043;-36
2022/06/01 11:38:40;;;;;;;2.40;1.30;;;17.20;59.90;;;;;;5112669;28;20367;-38
2022/06/01 11:41:13;;;;;;;1.63;1.35;;;17.30;60.30;;;;;;5112172;28;20016;-37
2022/06/01 11:43:49;;;;;;;;;;;17.40;60.50;;;;;;5112711;28;20489;-38
2022/06/01 11:46:33;;;;;;;1.75;1.65;;;17.50;60.60;;;;;;5110533;28;19908;-37
2022/06/01 11:49:04;;;;;;;2.38;2.00;;;17.50;60.90;;;;;;5112556;28;20076;-37
2022/06/01 11:51:36;;;;;;;2.03;1.90;;;17.50;61.20;;;;;;5110869;28;20043;-38
2022/06/01 11:54:14;;;;;;;4.30;2.10;;;17.60;61.60;;;;;;5112098;28;20028;-37
2022/06/01 11:56:51;;;;;;;3.00;2.58;;;17.70;61.80;;;;;;5112364;28;20103;-38
2022/06/01 11:59:33;;;;;;;4.55;2.60;;;17.90;61.50;;;;;;5074367;28;1087078;-38
2022/06/01 12:02:40;;;;;;;3.08;2.35;;;18.10;61.60;;;;;;5112910;28;20031;-39
2022/06/01 12:05:08;;;;;;;2.80;2.42;;;18.20;61.60;;;;;;5113314;28;20032;-38
2022/06/01 12:07:44;;;;;;;3.15;2.65;;;18.30;61.70;;;;;;5113433;28;20109;-38
2022/06/01 12:10:28;;;;;;;4.28;2.60;;;18.40;61.60;;;;;;5112877;28;20080;-38
2022/06/01 12:13:24;;;;;;;2.60;2.40;;;18.60;61.50;;;;;;5113125;28;20028;-37
2022/06/01 12:16:17;;;;;;;4.20;2.53;;;18.70;61.20;;;;;;5113058;28;20548;-39
2022/06/01 12:19:01;;;;;;;3.67;2.53;;;18.80;61.20;;;;;;5113213;28;20055;-39
2022/06/01 12:21:30;;;;;;;3.03;2.67;;;18.70;61.40;;;;;;5111634;28;20035;-39
2022/06/01 12:30:00;;;;;;;2.67;2.47;;;18.50;61.60;;;;;;5115025;28;20043;-36
2022/06/01 12:32:27;;;;;;;2.28;1.90;;;18.70;61.50;;;;;;5116775;28;20442;-37
2022/06/01 12:35:12;;;;;;;2.05;1.42;;;18.70;60.40;;;;;;5116767;28;20027;-36
2022/06/01 12:37:53;;;;;;;1.90;0.98;;;18.70;58.90;;;;;;5116768;28;20015;-38
2022/06/01 12:40:21;;;;;;;0.82;0.70;;;18.70;58.00;;;;;;5116834;28;20359;-39
2022/06/01 12:42:58;;;;;;;0.88;0.70;;;18.80;57.60;;;;;;5116684;28;20483;-38
2022/06/01 12:45:28;;;;;;;0.88;0.60;;;18.90;55.90;;;;;;5116390;28;20043;-37
2022/06/01 12:47:57;;;;;;;0.80;0.80;;;18.90;55.60;;;;;;5116224;28;20035;-37
2022/06/01 12:50:24;;;;;;;1.67;0.65;;;18.90;55.30;;;;;;5116267;28;20024;-37
2022/06/01 12:53:08;;;;;;;0.95;0.50;;;18.90;54.60;;;;;;5114914;28;20032;-39
2022/06/01 12:55:34;;;;;;;0.52;0.47;;;18.90;53.50;;;;;;5116317;28;20039;-39
2022/06/01 12:57:59;;;;;;;0.60;0.60;;;19.00;52.40;;;;;;5115983;28;20025;-37
2022/06/01 13:00:29;;;;;;;0.60;0.60;;;19.10;50.20;;;;;;5116189;28;20027;-38
2022/06/01 13:02:55;;;;;;;0.55;0.50;;;19.20;50.60;;;;;;5116135;28;20031;-37
2022/06/01 13:05:24;;;;;;;1.90;0.75;;;19.30;50.50;;;;;;5116059;28;20479;-39
2022/06/01 13:07:57;;;;;;;0.73;0.50;;;19.40;50.50;;;;;;5116224;28;20509;-39
2022/06/01 13:10:30;;;;;;;0.65;0.65;;;19.50;50.80;;;;;;5116067;28;20080;-39
2022/06/01 13:13:12;;;;;;;1.33;0.98;;;19.50;50.20;;;;;;5116048;28;20055;-37
2022/06/01 13:15:39;;;;;;;1.02;0.80;;;19.40;49.70;;;;;;5114598;28;20375;-39
2022/06/01 13:18:11;;;;;;;0.85;0.50;;;19.40;50.10;;;;;;5116218;28;20498;-38
2022/06/01 13:20:41;;;;;;;0.60;0.40;;;19.40;49.70;;;;;;5115558;28;20114;-39
2022/06/01 13:23:25;;;;;;;0.77;0.60;;;19.40;49.90;;;;;;5116049;28;20028;-39
2022/06/01 13:25:52;;;;;;;1.00;0.70;;;19.50;49.30;;;;;;5115829;28;20063;-39
2022/06/01 13:28:18;;;;;;;0.80;0.60;;;19.60;49.10;;;;;;5115875;28;20030;-39
2022/06/01 13:30:44;;;;;;;0.70;0.60;;;19.60;49.10;;;;;;5115803;28;20099;-39
2022/06/01 13:33:43;;;;;;;1.15;0.70;;;19.50;49.10;;;;;;5115584;28;20020;-39
2022/06/01 13:36:11;;;;;;;0.90;0.70;;;19.40;49.40;;;;;;5114187;28;20028;-39
2022/06/01 13:38:47;;;;;;;1.20;0.90;;;19.30;49.80;;;;;;5115656;28;20145;-39
2022/06/01 13:41:18;;;;;;;0.82;0.80;;;19.30;50.20;;;;;;5115631;27;20027;-44